createdAt,value
2018-06-17T00:01:09.926Z,100833.17
2018-06-17T00:03:39.034Z,100841.74
2018-06-17T00:06:08.108Z,100848.14
2018-06-17T00:08:37.224Z,100848.51
2018-06-17T00:11:06.423Z,100851.09
2018-06-17T00:13:35.519Z,100850.67
2018-06-17T00:16:04.621Z,100850.00
2018-06-17T00:18:33.746Z,100828.06
2018-06-17T00:21:02.821Z,100841.69
2018-06-17T00:23:31.916Z,100845.61
2018-06-17T00:26:01.004Z,100850.50
2018-06-17T00:28:30.136Z,100855.36
2018-06-17T00:30:59.220Z,100855.44
2018-06-17T00:33:28.329Z,100852.26
2018-06-17T00:35:57.417Z,100852.38
2018-06-17T00:38:26.521Z,100855.02
2018-06-17T00:40:55.604Z,100858.94
2018-06-17T00:43:24.704Z,100858.41
2018-06-17T00:45:53.822Z,100857.12
2018-06-17T00:48:22.924Z,100856.24
2018-06-17T00:50:51.997Z,100854.90
2018-06-17T00:53:21.099Z,100861.00
2018-06-17T00:55:50.183Z,100847.63
2018-06-17T00:58:19.284Z,100858.27
2018-06-17T01:00:48.364Z,100845.47
2018-06-17T01:03:17.472Z,100856.56
2018-06-17T01:05:46.557Z,100861.86
2018-06-17T01:08:15.659Z,100867.08
2018-06-17T01:10:44.739Z,100862.45
2018-06-17T01:13:13.856Z,100865.95
2018-06-17T01:15:42.944Z,100864.23
2018-06-17T01:18:12.044Z,100861.23
2018-06-17T01:20:41.133Z,100850.09
2018-06-17T01:23:10.245Z,100860.36
2018-06-17T01:25:39.356Z,100862.98
2018-06-17T01:28:08.445Z,100861.61
2018-06-17T01:30:37.545Z,100865.05
2018-06-17T01:33:06.622Z,100862.89
2018-06-17T01:35:35.771Z,100866.81
2018-06-17T01:38:04.860Z,100872.84
2018-06-17T01:40:33.964Z,100873.78
2018-06-17T01:43:03.043Z,100876.52
2018-06-17T01:45:32.173Z,100874.36
2018-06-17T01:48:01.264Z,100869.58
2018-06-17T01:50:30.380Z,100870.00
2018-06-17T01:52:59.469Z,100870.87
2018-06-17T01:55:28.573Z,100874.78
2018-06-17T01:57:57.661Z,100863.69
2018-06-17T02:00:26.783Z,100869.24
2018-06-17T02:02:55.855Z,100870.63
2018-06-17T02:05:30.380Z,100868.90
2018-06-17T02:08:04.751Z,100871.96
2018-06-17T02:10:39.148Z,100869.84
2018-06-17T02:13:08.228Z,100876.73
2018-06-17T02:15:37.348Z,100870.67
2018-06-17T02:18:06.441Z,100868.05
2018-06-17T02:20:35.561Z,100865.84
2018-06-17T02:23:04.648Z,100869.34
2018-06-17T02:25:33.764Z,100875.88
2018-06-17T02:28:02.852Z,100875.05
2018-06-17T02:30:31.964Z,100875.91
2018-06-17T02:33:01.068Z,100872.98
2018-06-17T02:35:30.184Z,100878.97
2018-06-17T02:37:59.277Z,100877.25
2018-06-17T02:40:28.380Z,100881.63
2018-06-17T02:42:57.468Z,100879.11
2018-06-17T02:45:31.905Z,100879.14
2018-06-17T02:49:09.225Z,100874.84
2018-06-17T02:51:43.793Z,100873.09
2018-06-17T02:54:18.257Z,100871.77
2018-06-17T02:56:47.372Z,100875.23
2018-06-17T02:59:16.481Z,100873.55
2018-06-17T03:01:45.589Z,100870.94
2018-06-17T03:04:14.910Z,100873.98
2018-06-17T03:06:44.017Z,100870.97
2018-06-17T03:09:13.104Z,100876.10
2018-06-17T03:11:42.216Z,100876.10
2018-06-17T03:14:11.308Z,100871.30
2018-06-17T03:16:40.416Z,100870.51
2018-06-17T03:19:09.505Z,100866.27
2018-06-17T03:21:38.612Z,100868.92
2018-06-17T03:24:07.700Z,100874.08
2018-06-17T03:26:42.135Z,100868.91
2018-06-17T03:29:16.677Z,100883.54
2018-06-17T03:31:51.049Z,100884.39
2018-06-17T03:34:20.132Z,100884.84
2018-06-17T03:36:49.229Z,100894.34
2018-06-17T03:39:18.341Z,100893.48
2018-06-17T03:41:47.428Z,100885.25
2018-06-17T03:44:16.537Z,100890.82
2018-06-17T03:46:45.645Z,100887.38
2018-06-17T03:49:14.752Z,100888.78
2018-06-17T03:51:43.840Z,100888.34
2018-06-17T03:54:12.948Z,100893.95
2018-06-17T03:56:42.068Z,100894.79
2018-06-17T03:59:11.180Z,100892.19
2018-06-17T04:01:40.259Z,100894.34
2018-06-17T04:04:09.435Z,100894.34
2018-06-17T04:06:38.468Z,100899.09
2018-06-17T04:09:08.474Z,100898.20
2018-06-17T04:11:37.776Z,100904.69
2018-06-17T04:14:06.884Z,100911.15
2018-06-17T04:16:35.977Z,100906.88
2018-06-17T04:19:05.136Z,100907.27
2018-06-17T04:21:34.221Z,100910.66
2018-06-17T04:24:03.356Z,100908.08
2018-06-17T04:26:32.439Z,100908.45
2018-06-17T04:29:01.564Z,100910.63
2018-06-17T04:31:30.697Z,100917.05
2018-06-17T04:33:59.812Z,100915.34
2018-06-17T04:36:28.904Z,100917.99
2018-06-17T04:38:58.025Z,100920.98
2018-06-17T04:41:27.112Z,100917.43
2018-06-17T04:43:56.220Z,100915.55
2018-06-17T04:46:25.328Z,100919.27
2018-06-17T04:48:54.441Z,100918.28
2018-06-17T04:51:23.528Z,100925.56
2018-06-17T04:53:52.633Z,100924.66
2018-06-17T04:56:21.726Z,100924.70
2018-06-17T04:58:50.837Z,100928.97
2018-06-17T05:01:19.920Z,100928.53
2018-06-17T05:03:49.009Z,100925.05
2018-06-17T05:06:18.116Z,100937.09
2018-06-17T05:08:47.209Z,100937.94
2018-06-17T05:11:16.315Z,100944.70
2018-06-17T05:13:45.441Z,100941.47
2018-06-17T05:16:14.545Z,100945.63
2018-06-17T05:18:43.672Z,100936.50
2018-06-17T05:21:12.791Z,100945.81
2018-06-17T05:23:41.888Z,100941.81
2018-06-17T05:26:10.992Z,100945.93
2018-06-17T05:28:40.081Z,100939.64
2018-06-17T05:31:09.196Z,100952.15
2018-06-17T05:33:38.288Z,100944.38
2018-06-17T05:36:07.421Z,100947.45
2018-06-17T05:38:36.496Z,100953.75
2018-06-17T05:41:05.615Z,100950.84
2018-06-17T05:43:34.700Z,100954.06
2018-06-17T05:46:03.817Z,100953.13
2018-06-17T05:48:32.899Z,100949.00
2018-06-17T05:51:01.996Z,100949.13
2018-06-17T05:53:31.076Z,100941.86
2018-06-17T05:56:00.191Z,100939.94
2018-06-17T05:58:29.264Z,100941.97
2018-06-17T06:00:58.368Z,100946.59
2018-06-17T06:03:27.456Z,100943.84
2018-06-17T06:05:56.565Z,100956.86
2018-06-17T06:08:25.639Z,100953.84
2018-06-17T06:10:54.744Z,100946.28
2018-06-17T06:13:23.829Z,100940.81
2018-06-17T06:15:52.920Z,100946.32
2018-06-17T06:18:21.985Z,100939.24
2018-06-17T06:20:51.080Z,100943.88
2018-06-17T06:23:20.160Z,100941.92
2018-06-17T06:25:49.253Z,100941.48
2018-06-17T06:28:18.348Z,100941.42
2018-06-17T06:30:47.432Z,100949.17
2018-06-17T06:33:16.517Z,100953.20
2018-06-17T06:35:45.596Z,100955.78
2018-06-17T06:38:14.724Z,100949.17
2018-06-17T06:40:43.792Z,100948.38
2018-06-17T06:43:12.892Z,100949.78
2018-06-17T06:45:42.052Z,100941.00
2018-06-17T06:48:11.220Z,100950.53
2018-06-17T06:50:40.488Z,100947.84
2018-06-17T06:53:09.601Z,100948.75
2018-06-17T06:55:39.384Z,100943.20
2018-06-17T06:58:09.480Z,100944.36
2018-06-17T07:00:39.391Z,100948.47
2018-06-17T07:03:20.576Z,100954.38
2018-06-17T07:06:00.988Z,100956.77
2018-06-17T07:08:41.428Z,100955.53
2018-06-17T07:11:10.508Z,100961.42
2018-06-17T07:13:39.624Z,100962.00
2018-06-17T07:16:20.269Z,100956.54
2018-06-17T07:18:49.432Z,100961.81
2018-06-17T07:21:19.036Z,100962.87
2018-06-17T07:23:47.860Z,100961.88
2018-06-17T07:26:44.413Z,100960.92
2018-06-17T07:29:39.945Z,100967.23
2018-06-17T07:32:08.828Z,100967.10
2018-06-17T07:34:37.664Z,100969.09
2018-06-17T07:37:06.685Z,100966.59
2018-06-17T07:40:01.463Z,100973.39
2018-06-17T07:42:30.291Z,100977.53
2018-06-17T07:44:59.120Z,100969.37
2018-06-17T07:47:27.916Z,100964.83
2018-06-17T07:50:07.940Z,100969.83
2018-06-17T07:52:48.057Z,100970.57
2018-06-17T07:55:16.849Z,100972.14
2018-06-17T07:57:45.675Z,100969.39
2018-06-17T08:00:14.480Z,100971.33
2018-06-17T08:02:43.287Z,100971.83
2018-06-17T08:05:12.096Z,100970.50
2018-06-17T08:07:40.900Z,100967.52
2018-06-17T08:10:09.711Z,100965.94
2018-06-17T08:12:38.838Z,100949.98
2018-06-17T08:15:07.785Z,100959.83
2018-06-17T08:17:36.588Z,100953.09
2018-06-17T08:20:06.384Z,100951.28
2018-06-17T08:22:35.123Z,100960.95
2018-06-17T08:25:03.961Z,100953.80
2018-06-17T08:27:32.761Z,100961.42
2018-06-17T08:30:01.576Z,100959.34
2018-06-17T08:32:30.804Z,100956.39
2018-06-17T08:34:59.716Z,100952.88
2018-06-17T08:37:28.509Z,100953.88
2018-06-17T08:39:57.688Z,100949.95
2018-06-17T08:42:26.956Z,100944.52
2018-06-17T08:44:55.812Z,100944.92
2018-06-17T08:47:24.636Z,100949.06
2018-06-17T08:49:53.472Z,100955.78
2018-06-17T08:52:22.272Z,100952.22
2018-06-17T08:54:51.095Z,100950.23
2018-06-17T08:57:20.269Z,100948.02
2018-06-17T08:59:49.092Z,100960.71
2018-06-17T09:02:18.131Z,100965.63
2018-06-17T09:04:46.953Z,100968.64
2018-06-17T09:07:15.751Z,100974.81
2018-06-17T09:09:44.585Z,100971.39
2018-06-17T09:12:13.420Z,100974.48
2018-06-17T09:14:42.264Z,100974.76
2018-06-17T09:17:11.138Z,100983.80
2018-06-17T09:19:39.945Z,100982.92
2018-06-17T09:22:08.872Z,100978.66
2018-06-17T09:24:37.672Z,100976.73
2018-06-17T09:27:06.497Z,100982.83
2018-06-17T09:29:35.360Z,100985.86
2018-06-17T09:32:04.235Z,100982.22
2018-06-17T09:34:33.032Z,100977.91
2018-06-17T09:37:01.852Z,100984.55
2018-06-17T09:39:30.752Z,100992.75
2018-06-17T09:41:59.624Z,100976.81
2018-06-17T09:44:28.526Z,100982.91
2018-06-17T09:46:57.265Z,100981.05
2018-06-17T09:49:26.191Z,100979.03
2018-06-17T09:51:55.028Z,100972.11
2018-06-17T09:54:23.819Z,100968.20
2018-06-17T09:56:52.644Z,100965.75
2018-06-17T09:59:21.663Z,100976.30
2018-06-17T10:01:50.584Z,100983.84
2018-06-17T10:04:19.308Z,100980.01
2018-06-17T10:06:48.144Z,100979.96
2018-06-17T10:09:16.941Z,100983.33
2018-06-17T10:11:45.781Z,100979.77
2018-06-17T10:14:14.916Z,100977.81
2018-06-17T10:16:44.029Z,100977.88
2018-06-17T10:19:13.196Z,100986.37
2018-06-17T10:21:42.290Z,100981.64
2018-06-17T10:24:11.419Z,100985.21
2018-06-17T10:26:40.487Z,100978.25
2018-06-17T10:29:09.704Z,100977.73
2018-06-17T10:31:38.797Z,100980.03
2018-06-17T10:34:08.412Z,100991.49
2018-06-17T10:36:37.512Z,100989.06
2018-06-17T10:39:08.090Z,100981.38
2018-06-17T10:41:38.150Z,100990.22
2018-06-17T10:44:07.320Z,100985.28
2018-06-17T10:46:36.417Z,100998.27
2018-06-17T10:49:05.560Z,100993.05
2018-06-17T10:51:34.629Z,101001.56
2018-06-17T10:54:03.745Z,100995.12
2018-06-17T10:56:32.833Z,100996.63
2018-06-17T10:59:01.936Z,101005.55
2018-06-17T11:01:32.075Z,101001.91
2018-06-17T11:04:01.179Z,101003.97
2018-06-17T11:06:30.252Z,101004.86
2018-06-17T11:08:59.348Z,101004.75
2018-06-17T11:11:28.439Z,101004.95
2018-06-17T11:13:57.524Z,101004.42
2018-06-17T11:16:26.628Z,100998.82
2018-06-17T11:18:55.765Z,100996.41
2018-06-17T11:21:24.864Z,101004.80
2018-06-17T11:23:53.947Z,101007.47
2018-06-17T11:26:24.096Z,100999.72
2018-06-17T11:28:53.164Z,100996.70
2018-06-17T11:31:22.288Z,101004.52
2018-06-17T11:33:51.368Z,101007.19
2018-06-17T11:36:20.473Z,101011.66
2018-06-17T11:38:49.585Z,101019.86
2018-06-17T11:41:18.652Z,101014.35
2018-06-17T11:43:47.719Z,101021.67
2018-06-17T11:46:16.868Z,101031.89
2018-06-17T11:48:46.144Z,101024.23
2018-06-17T11:51:16.145Z,101021.84
2018-06-17T11:53:45.228Z,101027.86
2018-06-17T11:56:14.344Z,101024.66
2018-06-17T11:58:43.434Z,101022.27
2018-06-17T12:01:12.584Z,101023.91
2018-06-17T12:03:41.676Z,101034.31
2018-06-17T12:06:10.768Z,101026.26
2018-06-17T12:08:39.841Z,101027.88
2018-06-17T12:11:09.037Z,101020.45
2018-06-17T12:13:38.234Z,101029.32
2018-06-17T12:16:07.491Z,101027.00
2018-06-17T12:18:36.592Z,101028.05
2018-06-17T12:21:05.937Z,101023.17
2018-06-17T12:23:35.028Z,101026.81
2018-06-17T12:26:04.104Z,101039.52
2018-06-17T12:28:33.193Z,101032.19
2018-06-17T12:31:02.288Z,101030.64
2018-06-17T12:33:31.475Z,101035.64
2018-06-17T12:36:00.520Z,101042.53
2018-06-17T12:38:29.720Z,101043.83
2018-06-17T12:40:59.348Z,101038.84
2018-06-17T12:43:28.517Z,101045.73
2018-06-17T12:45:57.951Z,101044.60
2018-06-17T12:48:27.041Z,101043.42
2018-06-17T12:50:56.128Z,101044.08
2018-06-17T12:53:25.231Z,101041.94
2018-06-17T12:55:54.647Z,101038.69
2018-06-17T12:58:24.688Z,101043.98
2018-06-17T13:00:54.674Z,101045.91
2018-06-17T13:03:24.005Z,101044.78
2018-06-17T13:05:53.272Z,101046.08
2018-06-17T13:08:23.444Z,101041.14
2018-06-17T13:10:52.539Z,101049.09
2018-06-17T13:13:21.661Z,101054.25
2018-06-17T13:15:50.739Z,101049.17
2018-06-17T13:18:19.856Z,101051.49
2018-06-17T13:20:48.963Z,101055.02
2018-06-17T13:23:18.064Z,101059.91
2018-06-17T13:25:47.140Z,101060.03
2018-06-17T13:28:16.248Z,101057.75
2018-06-17T13:30:45.329Z,101058.86
2018-06-17T13:33:14.417Z,101070.64
2018-06-17T13:35:43.525Z,101069.28
2018-06-17T13:38:12.605Z,101075.86
2018-06-17T13:40:42.048Z,101080.52
2018-06-17T13:43:11.132Z,101081.89
2018-06-17T13:45:40.264Z,101079.66
2018-06-17T13:48:09.376Z,101085.08
2018-06-17T13:50:38.572Z,101084.45
2018-06-17T13:53:07.672Z,101083.73
2018-06-17T13:55:36.773Z,101093.89
2018-06-17T13:58:06.713Z,101087.29
2018-06-17T14:00:35.809Z,101094.28
2018-06-17T14:03:04.892Z,101097.92
2018-06-17T14:05:34.002Z,101094.66
2018-06-17T14:08:03.084Z,101099.02
2018-06-17T14:10:32.280Z,101097.51
2018-06-17T14:13:01.356Z,101103.01
2018-06-17T14:15:30.457Z,101106.34
2018-06-17T14:17:59.531Z,101103.64
2018-06-17T14:20:28.647Z,101114.25
2018-06-17T14:22:57.725Z,101106.44
2018-06-17T14:25:26.828Z,101113.14
2018-06-17T14:27:55.932Z,101102.20
2018-06-17T14:30:25.036Z,101113.14
2018-06-17T14:32:54.112Z,101116.21
2018-06-17T14:35:23.276Z,101117.48
2018-06-17T14:37:52.365Z,101113.19
2018-06-17T14:40:21.477Z,101116.52
2018-06-17T14:42:56.017Z,101106.53
2018-06-17T14:45:30.384Z,101100.60
2018-06-17T14:48:04.948Z,101100.58
2018-06-17T14:50:39.368Z,101108.60
2018-06-17T14:53:08.442Z,101108.30
2018-06-17T14:55:37.528Z,101104.43
2018-06-17T14:58:06.709Z,101111.38
2018-06-17T15:00:35.796Z,101110.23
2018-06-17T15:03:05.229Z,101114.92
2018-06-17T15:05:34.317Z,101108.56
2018-06-17T15:08:03.487Z,101107.68
2018-06-17T15:10:32.555Z,101112.33
2018-06-17T15:13:01.664Z,101118.78
2018-06-17T15:15:30.740Z,101117.44
2018-06-17T15:17:59.843Z,101116.05
2018-06-17T15:20:28.943Z,101118.20
2018-06-17T15:22:58.044Z,101113.53
2018-06-17T15:25:27.133Z,101114.63
2018-06-17T15:27:56.549Z,101115.05
2018-06-17T15:30:25.713Z,101115.02
2018-06-17T15:33:00.120Z,101117.23
2018-06-17T15:35:34.517Z,101116.33
2018-06-17T15:38:08.941Z,101113.03
2018-06-17T15:40:43.324Z,101117.65
2018-06-17T15:43:12.424Z,101109.21
2018-06-17T15:45:41.525Z,101098.47
2018-06-17T15:48:10.624Z,101095.42
2018-06-17T15:50:39.757Z,101096.75
2018-06-17T15:53:08.945Z,101102.79
2018-06-17T15:55:38.033Z,101099.09
2018-06-17T15:58:07.132Z,101098.81
2018-06-17T16:00:36.212Z,101096.20
2018-06-17T16:03:05.493Z,101094.40
2018-06-17T16:05:34.586Z,101099.78
2018-06-17T16:08:04.400Z,101093.95
2018-06-17T16:10:33.502Z,101093.21
2018-06-17T16:13:08.002Z,101097.13
2018-06-17T16:15:42.424Z,101092.38
2018-06-17T16:18:17.003Z,101080.61
2018-06-17T16:20:51.440Z,101085.22
2018-06-17T16:23:20.566Z,101082.75
2018-06-17T16:25:50.378Z,101082.08
2018-06-17T16:28:19.461Z,101086.66
2018-06-17T16:30:48.584Z,101094.18
2018-06-17T16:33:18.163Z,101089.31
2018-06-17T16:35:47.667Z,101093.58
2018-06-17T16:38:16.749Z,101097.33
2018-06-17T16:40:45.951Z,101092.98
2018-06-17T16:43:15.028Z,101097.17
2018-06-17T16:45:44.240Z,101100.63
2018-06-17T16:48:13.337Z,101102.22
2018-06-17T16:50:46.604Z,101110.95
2018-06-17T16:53:21.052Z,101109.40
2018-06-17T16:56:53.204Z,101111.53
2018-06-17T16:59:27.728Z,101115.58
2018-06-17T17:01:56.952Z,101117.98
2018-06-17T17:04:26.058Z,101118.84
2018-06-17T17:06:55.175Z,101118.07
2018-06-17T17:09:24.291Z,101116.80
2018-06-17T17:11:53.428Z,101120.64
2018-06-17T17:14:22.585Z,101123.04
2018-06-17T17:16:51.689Z,101124.05
2018-06-17T17:19:20.788Z,101129.30
2018-06-17T17:21:49.896Z,101125.29
2018-06-17T17:24:18.992Z,101129.78
2018-06-17T17:26:48.109Z,101132.15
2018-06-17T17:29:17.184Z,101132.66
2018-06-17T17:31:51.528Z,101143.12
2018-06-17T17:34:26.041Z,101145.81
2018-06-17T17:37:00.452Z,101145.64
2018-06-17T17:39:35.624Z,101143.57
2018-06-17T17:42:04.968Z,101144.12
2018-06-17T17:44:39.332Z,101143.38
2018-06-17T17:47:13.697Z,101138.42
2018-06-17T17:49:42.881Z,101136.84
2018-06-17T17:52:12.112Z,101143.10
2018-06-17T17:54:41.216Z,101144.67
2018-06-17T17:57:10.380Z,101141.99
2018-06-17T17:59:39.558Z,101146.08
2018-06-17T18:02:08.656Z,101150.11
2018-06-17T18:04:37.849Z,101155.19
2018-06-17T18:07:06.968Z,101162.70
2018-06-17T18:09:36.150Z,101164.40
2018-06-17T18:12:06.113Z,101166.60
2018-06-17T18:14:35.200Z,101172.47
2018-06-17T18:17:04.315Z,101166.47
2018-06-17T18:19:33.412Z,101161.61
2018-06-17T18:22:02.540Z,101164.10
2018-06-17T18:24:31.615Z,101169.75
2018-06-17T18:27:05.997Z,101164.87
2018-06-17T18:29:40.328Z,101171.02
2018-06-17T18:32:15.448Z,101173.63
2018-06-17T18:34:51.498Z,101171.17
2018-06-17T18:37:20.777Z,101168.73
2018-06-17T18:39:49.945Z,101169.66
2018-06-17T18:42:19.156Z,101171.38
2018-06-17T18:44:48.601Z,101179.25
2018-06-17T18:47:17.864Z,101172.58
2018-06-17T18:49:46.964Z,101171.47
2018-06-17T18:52:16.128Z,101172.05
2018-06-17T18:54:45.918Z,101173.11
2018-06-17T18:57:16.749Z,101176.39
2018-06-17T18:59:46.640Z,101173.86
2018-06-17T19:02:16.017Z,101170.31
2018-06-17T19:04:46.054Z,101170.02
2018-06-17T19:07:15.180Z,101181.27
2018-06-17T19:09:50.456Z,101179.69
2018-06-17T19:12:27.068Z,101180.34
2018-06-17T19:15:02.694Z,101172.36
2018-06-17T19:17:37.796Z,101175.04
2018-06-17T19:20:06.954Z,101179.63
2018-06-17T19:22:37.078Z,101178.69
2018-06-17T19:25:06.792Z,101179.97
2018-06-17T19:27:35.872Z,101183.86
2018-06-17T19:30:05.674Z,101184.30
2018-06-17T19:32:34.796Z,101183.61
2018-06-17T19:35:03.908Z,101187.13
2018-06-17T19:37:32.996Z,101186.78
2018-06-17T19:40:02.134Z,101181.22
2018-06-17T19:42:31.352Z,101189.90
2018-06-17T19:45:01.000Z,101189.86
2018-06-17T19:47:32.339Z,101191.16
2018-06-17T19:50:08.816Z,101197.59
2018-06-17T19:52:43.436Z,101195.13
2018-06-17T19:55:17.835Z,101196.95
2018-06-17T19:57:52.541Z,101193.91
2018-06-17T20:00:26.975Z,101196.09
2018-06-17T20:02:56.065Z,101200.39
2018-06-17T20:05:25.939Z,101197.30
2018-06-17T20:07:55.019Z,101201.12
2018-06-17T20:10:24.136Z,101206.67
2018-06-17T20:12:53.448Z,101207.26
2018-06-17T20:15:22.556Z,101206.53
2018-06-17T20:17:51.633Z,101206.95
2018-06-17T20:20:21.052Z,101212.95
2018-06-17T20:22:50.857Z,101216.92
2018-06-17T20:25:20.921Z,101213.91
2018-06-17T20:27:50.004Z,101217.48
2018-06-17T20:30:19.187Z,101222.75
2018-06-17T20:32:53.496Z,101220.23
2018-06-17T20:35:27.872Z,101220.72
2018-06-17T20:38:02.230Z,101230.35
2018-06-17T20:40:36.644Z,101233.00
2018-06-17T20:43:11.212Z,101229.17
2018-06-17T20:45:40.487Z,101230.47
2018-06-17T20:48:09.592Z,101236.53
2018-06-17T20:50:38.681Z,101240.00
2018-06-17T20:53:07.785Z,101244.81
2018-06-17T20:55:36.868Z,101241.89
2018-06-17T20:58:06.061Z,101245.29
2018-06-17T21:00:35.080Z,101245.60
2018-06-17T21:03:04.183Z,101250.85
2018-06-17T21:05:33.275Z,101248.70
2018-06-17T21:08:02.356Z,101250.42
2018-06-17T21:10:31.541Z,101252.54
2018-06-17T21:13:00.636Z,101253.94
2018-06-17T21:15:29.704Z,101246.97
2018-06-17T21:17:58.804Z,101249.53
2018-06-17T21:20:33.236Z,101247.76
2018-06-17T21:23:07.779Z,101253.74
2018-06-17T21:25:42.077Z,101240.84
2018-06-17T21:28:11.162Z,101261.03
2018-06-17T21:30:40.225Z,101260.72
2018-06-17T21:33:09.537Z,101268.99
2018-06-17T21:35:38.616Z,101262.58
2018-06-17T21:38:07.704Z,101266.42
2018-06-17T21:40:36.777Z,101267.76
2018-06-17T21:43:05.940Z,101275.22
2018-06-17T21:45:35.038Z,101287.78
2018-06-17T21:48:04.135Z,101288.40
2018-06-17T21:50:33.216Z,101291.19
2018-06-17T21:53:02.308Z,101289.57
2018-06-17T21:55:31.401Z,101297.80
2018-06-17T21:58:00.537Z,101301.72
2018-06-17T22:00:29.613Z,101309.50
2018-06-17T22:02:58.708Z,101301.05
2018-06-17T22:05:27.792Z,101308.84
2018-06-17T22:08:02.288Z,101315.75
2018-06-17T22:10:36.701Z,101311.05
2018-06-17T22:13:05.884Z,101314.94
2018-06-17T22:15:40.256Z,101321.41
2018-06-17T22:18:09.357Z,101318.39
2018-06-17T22:20:38.428Z,101315.37
2018-06-17T22:23:07.541Z,101318.77
2018-06-17T22:25:36.611Z,101323.53
2018-06-17T22:28:05.715Z,101328.70
2018-06-17T22:30:34.796Z,101324.38
2018-06-17T22:33:03.894Z,101321.78
2018-06-17T22:35:33.044Z,101326.52
2018-06-17T22:38:02.112Z,101324.78
2018-06-17T22:40:31.213Z,101324.30
2018-06-17T22:43:00.298Z,101323.02
2018-06-17T22:45:29.411Z,101324.28
2018-06-17T22:47:59.631Z,101320.00
2018-06-17T22:50:28.757Z,101326.84
2018-06-17T22:53:09.181Z,101320.81
2018-06-17T22:55:38.275Z,101312.63
2018-06-17T22:58:12.599Z,101313.87
2018-06-17T23:00:47.009Z,101316.89
2018-06-17T23:03:21.501Z,101317.29
2018-06-17T23:05:56.044Z,101322.52
2018-06-17T23:08:30.556Z,101327.77
2018-06-17T23:10:59.584Z,101319.13
2018-06-17T23:13:28.672Z,101318.68
2018-06-17T23:15:57.776Z,101317.79
2018-06-17T23:18:26.856Z,101314.32
2018-06-17T23:20:55.953Z,101316.02
2018-06-17T23:23:25.027Z,101314.73
2018-06-17T23:25:54.137Z,101312.58
2018-06-17T23:28:23.224Z,101314.80
2018-06-17T23:30:52.333Z,101317.86
2018-06-17T23:33:21.401Z,101309.72
2018-06-17T23:35:50.496Z,101309.28
2018-06-17T23:38:19.572Z,101309.75
2018-06-17T23:40:48.672Z,101312.78
2018-06-17T23:43:17.752Z,101318.80
2018-06-17T23:45:52.308Z,101313.66
2018-06-17T23:48:26.681Z,101328.72
2018-06-17T23:51:01.245Z,101333.88
2018-06-17T23:54:34.304Z,101335.16
2018-06-17T23:57:03.415Z,101351.55
2018-06-17T23:59:32.496Z,101347.23
